sensor_id;sensor_type;location;lat;lon;timestamp;P1;durP1;ratioP1;P2;durP2;ratioP2
18435;SDS011;9346;52.006;4.720;2023-02-28T00:01:39;3.13;;;1.43;;
18435;SDS011;9346;52.006;4.720;2023-02-28T00:04:06;2.27;;;1.10;;
18435;SDS011;9346;52.006;4.720;2023-02-28T00:06:34;1.77;;;1.20;;
18435;SDS011;9346;52.006;4.720;2023-02-28T00:09:01;2.00;;;1.10;;
18435;SDS011;9346;52.006;4.720;2023-02-28T00:11:30;2.03;;;1.27;;
18435;SDS011;9346;52.006;4.720;2023-02-28T00:13:57;3.10;;;1.57;;
18435;SDS011;9346;52.006;4.720;2023-02-28T00:16:25;1.60;;;1.30;;
18435;SDS011;9346;52.006;4.720;2023-02-28T00:18:52;1.77;;;1.30;;
18435;SDS011;9346;52.006;4.720;2023-02-28T00:21:19;10.47;;;1.47;;
18435;SDS011;9346;52.006;4.720;2023-02-28T00:23:47;3.10;;;1.13;;
18435;SDS011;9346;52.006;4.720;2023-02-28T00:26:15;1.90;;;1.50;;
18435;SDS011;9346;52.006;4.720;2023-02-28T00:28:43;3.27;;;1.57;;
18435;SDS011;9346;52.006;4.720;2023-02-28T00:31:10;4.97;;;1.53;;
18435;SDS011;9346;52.006;4.720;2023-02-28T00:33:37;1.87;;;1.27;;
18435;SDS011;9346;52.006;4.720;2023-02-28T00:36:05;1.20;;;1.10;;
18435;SDS011;9346;52.006;4.720;2023-02-28T00:38:33;2.17;;;1.13;;
18435;SDS011;9346;52.006;4.720;2023-02-28T00:41:00;3.13;;;1.40;;
18435;SDS011;9346;52.006;4.720;2023-02-28T00:43:30;1.50;;;1.10;;
18435;SDS011;9346;52.006;4.720;2023-02-28T00:46:00;3.27;;;1.30;;
18435;SDS011;9346;52.006;4.720;2023-02-28T00:48:27;10.57;;;1.47;;
18435;SDS011;9346;52.006;4.720;2023-02-28T00:50:54;4.53;;;1.30;;
18435;SDS011;9346;52.006;4.720;2023-02-28T00:53:21;5.60;;;1.67;;
18435;SDS011;9346;52.006;4.720;2023-02-28T00:55:49;4.97;;;1.47;;
18435;SDS011;9346;52.006;4.720;2023-02-28T00:58:15;2.87;;;1.10;;
18435;SDS011;9346;52.006;4.720;2023-02-28T01:00:43;4.97;;;1.23;;
18435;SDS011;9346;52.006;4.720;2023-02-28T01:03:15;4.77;;;1.40;;
18435;SDS011;9346;52.006;4.720;2023-02-28T01:05:43;3.53;;;1.10;;
18435;SDS011;9346;52.006;4.720;2023-02-28T01:08:10;1.87;;;1.50;;
18435;SDS011;9346;52.006;4.720;2023-02-28T01:10:38;3.00;;;1.90;;
18435;SDS011;9346;52.006;4.720;2023-02-28T01:13:05;2.70;;;1.37;;
18435;SDS011;9346;52.006;4.720;2023-02-28T01:15:33;4.57;;;1.73;;
18435;SDS011;9346;52.006;4.720;2023-02-28T01:17:59;1.37;;;1.10;;
18435;SDS011;9346;52.006;4.720;2023-02-28T01:20:28;3.43;;;1.17;;
18435;SDS011;9346;52.006;4.720;2023-02-28T01:22:55;2.40;;;1.30;;
18435;SDS011;9346;52.006;4.720;2023-02-28T01:25:22;1.80;;;1.70;;
18435;SDS011;9346;52.006;4.720;2023-02-28T01:27:49;1.37;;;1.27;;
18435;SDS011;9346;52.006;4.720;2023-02-28T01:30:17;3.30;;;1.70;;
18435;SDS011;9346;52.006;4.720;2023-02-28T01:32:44;2.00;;;1.40;;
18435;SDS011;9346;52.006;4.720;2023-02-28T01:35:11;3.20;;;1.80;;
18435;SDS011;9346;52.006;4.720;2023-02-28T01:37:39;5.93;;;1.50;;
18435;SDS011;9346;52.006;4.720;2023-02-28T01:40:07;5.40;;;1.87;;
18435;SDS011;9346;52.006;4.720;2023-02-28T01:42:35;12.80;;;1.97;;
18435;SDS011;9346;52.006;4.720;2023-02-28T01:45:07;2.17;;;1.43;;
18435;SDS011;9346;52.006;4.720;2023-02-28T01:47:45;5.07;;;1.53;;
18435;SDS011;9346;52.006;4.720;2023-02-28T01:50:17;2.03;;;1.17;;
18435;SDS011;9346;52.006;4.720;2023-02-28T01:52:47;3.43;;;1.63;;
18435;SDS011;9346;52.006;4.720;2023-02-28T01:55:16;3.20;;;1.67;;
18435;SDS011;9346;52.006;4.720;2023-02-28T01:57:46;3.40;;;1.43;;
18435;SDS011;9346;52.006;4.720;2023-02-28T02:00:20;6.17;;;2.50;;
18435;SDS011;9346;52.006;4.720;2023-02-28T02:02:50;3.37;;;1.50;;
18435;SDS011;9346;52.006;4.720;2023-02-28T02:05:20;2.67;;;1.13;;
18435;SDS011;9346;52.006;4.720;2023-02-28T02:07:50;2.83;;;1.40;;
18435;SDS011;9346;52.006;4.720;2023-02-28T02:10:26;1.60;;;1.50;;
18435;SDS011;9346;52.006;4.720;2023-02-28T02:13:05;6.00;;;1.53;;
18435;SDS011;9346;52.006;4.720;2023-02-28T02:15:41;3.73;;;1.17;;
18435;SDS011;9346;52.006;4.720;2023-02-28T02:18:17;3.33;;;1.53;;
18435;SDS011;9346;52.006;4.720;2023-02-28T02:23:53;3.50;;;1.70;;
18435;SDS011;9346;52.006;4.720;2023-02-28T02:26:53;2.33;;;1.30;;
18435;SDS011;9346;52.006;4.720;2023-02-28T02:29:46;2.00;;;1.20;;
18435;SDS011;9346;52.006;4.720;2023-02-28T02:32:28;1.80;;;1.27;;
18435;SDS011;9346;52.006;4.720;2023-02-28T02:35:22;1.93;;;1.53;;
18435;SDS011;9346;52.006;4.720;2023-02-28T02:37:56;2.50;;;1.73;;
18435;SDS011;9346;52.006;4.720;2023-02-28T02:40:30;1.87;;;1.30;;
18435;SDS011;9346;52.006;4.720;2023-02-28T02:43:03;6.50;;;1.80;;
18435;SDS011;9346;52.006;4.720;2023-02-28T02:45:36;5.10;;;1.80;;
18435;SDS011;9346;52.006;4.720;2023-02-28T02:48:09;7.20;;;2.27;;
18435;SDS011;9346;52.006;4.720;2023-02-28T02:50:43;6.60;;;1.63;;
18435;SDS011;9346;52.006;4.720;2023-02-28T02:53:13;8.73;;;2.63;;
18435;SDS011;9346;52.006;4.720;2023-02-28T02:55:43;8.37;;;1.60;;
18435;SDS011;9346;52.006;4.720;2023-02-28T02:58:18;3.67;;;1.40;;
18435;SDS011;9346;52.006;4.720;2023-02-28T03:00:47;2.10;;;1.80;;
18435;SDS011;9346;52.006;4.720;2023-02-28T03:03:19;5.97;;;1.97;;
18435;SDS011;9346;52.006;4.720;2023-02-28T03:05:56;5.03;;;1.43;;
18435;SDS011;9346;52.006;4.720;2023-02-28T03:08:24;3.97;;;1.57;;
18435;SDS011;9346;52.006;4.720;2023-02-28T03:10:52;8.47;;;1.77;;
18435;SDS011;9346;52.006;4.720;2023-02-28T03:16:36;2.80;;;1.80;;
18435;SDS011;9346;52.006;4.720;2023-02-28T03:22:11;3.27;;;1.60;;
18435;SDS011;9346;52.006;4.720;2023-02-28T03:24:49;5.50;;;1.57;;
18435;SDS011;9346;52.006;4.720;2023-02-28T03:27:23;3.87;;;1.80;;
18435;SDS011;9346;52.006;4.720;2023-02-28T03:29:56;4.53;;;1.50;;
18435;SDS011;9346;52.006;4.720;2023-02-28T03:32:27;2.97;;;1.67;;
18435;SDS011;9346;52.006;4.720;2023-02-28T03:35:00;1.60;;;1.27;;
18435;SDS011;9346;52.006;4.720;2023-02-28T03:37:34;2.97;;;1.87;;
18435;SDS011;9346;52.006;4.720;2023-02-28T03:40:06;5.43;;;1.90;;
18435;SDS011;9346;52.006;4.720;2023-02-28T03:42:37;2.07;;;1.73;;
18435;SDS011;9346;52.006;4.720;2023-02-28T03:45:09;3.40;;;1.57;;
18435;SDS011;9346;52.006;4.720;2023-02-28T03:47:40;4.20;;;1.90;;
18435;SDS011;9346;52.006;4.720;2023-02-28T03:50:10;3.03;;;1.83;;
18435;SDS011;9346;52.006;4.720;2023-02-28T03:52:44;3.97;;;1.90;;
18435;SDS011;9346;52.006;4.720;2023-02-28T03:55:17;6.07;;;1.90;;
18435;SDS011;9346;52.006;4.720;2023-02-28T03:57:49;2.30;;;1.77;;
18435;SDS011;9346;52.006;4.720;2023-02-28T04:00:25;5.70;;;2.30;;
18435;SDS011;9346;52.006;4.720;2023-02-28T04:02:57;6.43;;;2.53;;
18435;SDS011;9346;52.006;4.720;2023-02-28T04:05:25;9.17;;;3.37;;
18435;SDS011;9346;52.006;4.720;2023-02-28T04:07:55;4.10;;;2.47;;
18435;SDS011;9346;52.006;4.720;2023-02-28T04:10:30;7.27;;;2.23;;
18435;SDS011;9346;52.006;4.720;2023-02-28T04:12:56;7.77;;;2.30;;
18435;SDS011;9346;52.006;4.720;2023-02-28T04:15:23;6.97;;;2.03;;
18435;SDS011;9346;52.006;4.720;2023-02-28T04:17:52;6.77;;;1.97;;
18435;SDS011;9346;52.006;4.720;2023-02-28T04:20:19;6.53;;;2.43;;
18435;SDS011;9346;52.006;4.720;2023-02-28T04:22:46;5.10;;;2.50;;
18435;SDS011;9346;52.006;4.720;2023-02-28T04:25:15;3.73;;;2.40;;
18435;SDS011;9346;52.006;4.720;2023-02-28T04:27:41;6.40;;;2.83;;
18435;SDS011;9346;52.006;4.720;2023-02-28T04:30:10;4.83;;;2.57;;
18435;SDS011;9346;52.006;4.720;2023-02-28T04:32:37;5.33;;;2.23;;
18435;SDS011;9346;52.006;4.720;2023-02-28T04:35:05;5.60;;;2.70;;
18435;SDS011;9346;52.006;4.720;2023-02-28T04:37:32;6.67;;;2.10;;
18435;SDS011;9346;52.006;4.720;2023-02-28T04:39:59;5.20;;;2.93;;
18435;SDS011;9346;52.006;4.720;2023-02-28T04:42:28;4.70;;;2.73;;
18435;SDS011;9346;52.006;4.720;2023-02-28T04:45:00;8.67;;;2.73;;
18435;SDS011;9346;52.006;4.720;2023-02-28T04:47:27;6.00;;;2.87;;
18435;SDS011;9346;52.006;4.720;2023-02-28T04:49:54;3.00;;;2.47;;
18435;SDS011;9346;52.006;4.720;2023-02-28T04:52:21;6.37;;;2.83;;
18435;SDS011;9346;52.006;4.720;2023-02-28T04:54:49;4.83;;;2.93;;
18435;SDS011;9346;52.006;4.720;2023-02-28T04:57:16;7.73;;;2.60;;
18435;SDS011;9346;52.006;4.720;2023-02-28T04:59:44;4.20;;;2.57;;
18435;SDS011;9346;52.006;4.720;2023-02-28T05:02:11;4.97;;;2.77;;
18435;SDS011;9346;52.006;4.720;2023-02-28T05:04:38;3.87;;;2.80;;
18435;SDS011;9346;52.006;4.720;2023-02-28T05:07:05;7.60;;;2.43;;
18435;SDS011;9346;52.006;4.720;2023-02-28T05:09:32;8.47;;;3.23;;
18435;SDS011;9346;52.006;4.720;2023-02-28T05:11:59;7.83;;;2.73;;
18435;SDS011;9346;52.006;4.720;2023-02-28T05:14:26;8.10;;;2.83;;
18435;SDS011;9346;52.006;4.720;2023-02-28T05:16:55;5.07;;;2.73;;
18435;SDS011;9346;52.006;4.720;2023-02-28T05:19:22;6.10;;;3.10;;
18435;SDS011;9346;52.006;4.720;2023-02-28T05:21:49;5.63;;;3.47;;
18435;SDS011;9346;52.006;4.720;2023-02-28T05:24:18;4.47;;;2.93;;
18435;SDS011;9346;52.006;4.720;2023-02-28T05:26:48;3.17;;;2.40;;
18435;SDS011;9346;52.006;4.720;2023-02-28T05:29:15;6.67;;;2.97;;
18435;SDS011;9346;52.006;4.720;2023-02-28T05:31:42;5.63;;;2.77;;
18435;SDS011;9346;52.006;4.720;2023-02-28T05:34:11;6.77;;;3.47;;
18435;SDS011;9346;52.006;4.720;2023-02-28T05:36:40;4.70;;;2.83;;
18435;SDS011;9346;52.006;4.720;2023-02-28T05:39:07;4.47;;;3.30;;
18435;SDS011;9346;52.006;4.720;2023-02-28T05:41:38;11.47;;;3.87;;
18435;SDS011;9346;52.006;4.720;2023-02-28T05:44:05;8.37;;;3.67;;
18435;SDS011;9346;52.006;4.720;2023-02-28T05:46:32;5.60;;;3.73;;
18435;SDS011;9346;52.006;4.720;2023-02-28T05:48:59;5.60;;;3.80;;
18435;SDS011;9346;52.006;4.720;2023-02-28T05:51:28;6.43;;;3.27;;
18435;SDS011;9346;52.006;4.720;2023-02-28T05:53:58;5.37;;;3.27;;
18435;SDS011;9346;52.006;4.720;2023-02-28T05:56:26;4.97;;;3.20;;
18435;SDS011;9346;52.006;4.720;2023-02-28T05:58:52;7.73;;;2.87;;
18435;SDS011;9346;52.006;4.720;2023-02-28T06:01:20;5.17;;;2.83;;
18435;SDS011;9346;52.006;4.720;2023-02-28T06:03:50;3.73;;;2.57;;
18435;SDS011;9346;52.006;4.720;2023-02-28T06:06:17;5.73;;;3.13;;
18435;SDS011;9346;52.006;4.720;2023-02-28T06:08:45;3.70;;;2.00;;
18435;SDS011;9346;52.006;4.720;2023-02-28T06:11:13;3.03;;;2.37;;
18435;SDS011;9346;52.006;4.720;2023-02-28T06:13:40;2.90;;;2.47;;
18435;SDS011;9346;52.006;4.720;2023-02-28T06:16:07;3.87;;;2.70;;
18435;SDS011;9346;52.006;4.720;2023-02-28T06:18:36;3.23;;;2.00;;
18435;SDS011;9346;52.006;4.720;2023-02-28T06:21:03;4.93;;;2.37;;
18435;SDS011;9346;52.006;4.720;2023-02-28T06:23:30;4.27;;;2.13;;
18435;SDS011;9346;52.006;4.720;2023-02-28T06:25:59;5.50;;;2.40;;
18435;SDS011;9346;52.006;4.720;2023-02-28T06:28:27;6.40;;;2.37;;
18435;SDS011;9346;52.006;4.720;2023-02-28T06:30:54;2.53;;;2.17;;
18435;SDS011;9346;52.006;4.720;2023-02-28T06:33:20;2.73;;;1.77;;
18435;SDS011;9346;52.006;4.720;2023-02-28T06:35:49;3.77;;;2.03;;
18435;SDS011;9346;52.006;4.720;2023-02-28T06:38:16;3.20;;;2.17;;
18435;SDS011;9346;52.006;4.720;2023-02-28T06:40:45;2.93;;;1.70;;
18435;SDS011;9346;52.006;4.720;2023-02-28T06:43:22;9.57;;;2.57;;
18435;SDS011;9346;52.006;4.720;2023-02-28T06:45:49;2.43;;;2.07;;
18435;SDS011;9346;52.006;4.720;2023-02-28T06:48:16;3.13;;;2.20;;
18435;SDS011;9346;52.006;4.720;2023-02-28T06:50:44;4.37;;;2.80;;
18435;SDS011;9346;52.006;4.720;2023-02-28T06:53:11;5.43;;;2.33;;
18435;SDS011;9346;52.006;4.720;2023-02-28T06:55:39;3.17;;;2.10;;
18435;SDS011;9346;52.006;4.720;2023-02-28T06:58:07;3.83;;;2.17;;
18435;SDS011;9346;52.006;4.720;2023-02-28T07:00:41;7.33;;;2.30;;
18435;SDS011;9346;52.006;4.720;2023-02-28T07:03:08;4.10;;;2.43;;
18435;SDS011;9346;52.006;4.720;2023-02-28T07:05:35;5.80;;;1.90;;
18435;SDS011;9346;52.006;4.720;2023-02-28T07:08:03;4.47;;;2.43;;
18435;SDS011;9346;52.006;4.720;2023-02-28T07:10:31;4.63;;;2.53;;
18435;SDS011;9346;52.006;4.720;2023-02-28T07:12:58;9.43;;;2.20;;
18435;SDS011;9346;52.006;4.720;2023-02-28T07:15:25;3.43;;;2.30;;
18435;SDS011;9346;52.006;4.720;2023-02-28T07:17:54;3.17;;;2.07;;
18435;SDS011;9346;52.006;4.720;2023-02-28T07:20:21;3.70;;;2.37;;
18435;SDS011;9346;52.006;4.720;2023-02-28T07:22:48;4.13;;;2.67;;
18435;SDS011;9346;52.006;4.720;2023-02-28T07:25:21;4.37;;;2.57;;
18435;SDS011;9346;52.006;4.720;2023-02-28T07:27:48;5.07;;;2.10;;
18435;SDS011;9346;52.006;4.720;2023-02-28T07:30:15;4.63;;;2.40;;
18435;SDS011;9346;52.006;4.720;2023-02-28T07:32:43;4.20;;;2.27;;
18435;SDS011;9346;52.006;4.720;2023-02-28T07:35:11;4.17;;;2.10;;
18435;SDS011;9346;52.006;4.720;2023-02-28T07:37:40;2.87;;;2.07;;
18435;SDS011;9346;52.006;4.720;2023-02-28T07:40:09;2.03;;;1.83;;
18435;SDS011;9346;52.006;4.720;2023-02-28T07:42:37;7.37;;;2.57;;
18435;SDS011;9346;52.006;4.720;2023-02-28T07:45:05;3.47;;;2.10;;
18435;SDS011;9346;52.006;4.720;2023-02-28T07:47:33;2.00;;;1.80;;
18435;SDS011;9346;52.006;4.720;2023-02-28T07:50:00;3.87;;;2.23;;
18435;SDS011;9346;52.006;4.720;2023-02-28T07:52:29;3.53;;;2.20;;
18435;SDS011;9346;52.006;4.720;2023-02-28T07:54:57;4.20;;;1.87;;
18435;SDS011;9346;52.006;4.720;2023-02-28T07:57:24;3.73;;;1.70;;
18435;SDS011;9346;52.006;4.720;2023-02-28T07:59:51;4.10;;;2.60;;
18435;SDS011;9346;52.006;4.720;2023-02-28T08:02:18;3.60;;;2.40;;
18435;SDS011;9346;52.006;4.720;2023-02-28T08:04:45;8.53;;;2.30;;
18435;SDS011;9346;52.006;4.720;2023-02-28T08:07:13;5.10;;;2.40;;
18435;SDS011;9346;52.006;4.720;2023-02-28T08:09:43;6.73;;;2.33;;
18435;SDS011;9346;52.006;4.720;2023-02-28T08:12:10;5.27;;;2.07;;
18435;SDS011;9346;52.006;4.720;2023-02-28T08:14:38;4.83;;;2.20;;
18435;SDS011;9346;52.006;4.720;2023-02-28T08:17:06;3.10;;;2.50;;
18435;SDS011;9346;52.006;4.720;2023-02-28T08:19:33;4.67;;;2.60;;
18435;SDS011;9346;52.006;4.720;2023-02-28T08:22:00;6.23;;;3.00;;
18435;SDS011;9346;52.006;4.720;2023-02-28T08:24:27;4.70;;;2.30;;
18435;SDS011;9346;52.006;4.720;2023-02-28T08:26:55;3.93;;;2.50;;
18435;SDS011;9346;52.006;4.720;2023-02-28T08:29:23;4.07;;;3.07;;
18435;SDS011;9346;52.006;4.720;2023-02-28T08:31:49;10.40;;;3.10;;
18435;SDS011;9346;52.006;4.720;2023-02-28T08:34:16;7.97;;;3.40;;
18435;SDS011;9346;52.006;4.720;2023-02-28T08:36:43;7.33;;;2.63;;
18435;SDS011;9346;52.006;4.720;2023-02-28T08:39:11;5.27;;;3.20;;
18435;SDS011;9346;52.006;4.720;2023-02-28T08:41:41;3.40;;;2.80;;
18435;SDS011;9346;52.006;4.720;2023-02-28T08:44:10;4.83;;;3.10;;
18435;SDS011;9346;52.006;4.720;2023-02-28T08:46:37;4.17;;;2.87;;
18435;SDS011;9346;52.006;4.720;2023-02-28T08:49:04;14.73;;;3.43;;
18435;SDS011;9346;52.006;4.720;2023-02-28T08:51:32;5.03;;;3.40;;
18435;SDS011;9346;52.006;4.720;2023-02-28T08:53:59;9.40;;;3.80;;
18435;SDS011;9346;52.006;4.720;2023-02-28T08:56:27;6.83;;;3.40;;
18435;SDS011;9346;52.006;4.720;2023-02-28T08:58:56;4.53;;;3.10;;
18435;SDS011;9346;52.006;4.720;2023-02-28T09:01:25;6.33;;;2.83;;
18435;SDS011;9346;52.006;4.720;2023-02-28T09:03:54;6.77;;;2.83;;
18435;SDS011;9346;52.006;4.720;2023-02-28T09:06:23;5.83;;;3.10;;
18435;SDS011;9346;52.006;4.720;2023-02-28T09:08:51;8.70;;;3.37;;
18435;SDS011;9346;52.006;4.720;2023-02-28T09:11:24;4.30;;;2.80;;
18435;SDS011;9346;52.006;4.720;2023-02-28T09:13:52;6.13;;;3.40;;
18435;SDS011;9346;52.006;4.720;2023-02-28T09:16:20;7.40;;;3.43;;
18435;SDS011;9346;52.006;4.720;2023-02-28T09:18:49;5.40;;;2.83;;
18435;SDS011;9346;52.006;4.720;2023-02-28T09:21:17;8.53;;;3.30;;
18435;SDS011;9346;52.006;4.720;2023-02-28T09:23:46;4.47;;;2.47;;
18435;SDS011;9346;52.006;4.720;2023-02-28T09:26:14;5.57;;;2.90;;
18435;SDS011;9346;52.006;4.720;2023-02-28T09:28:43;6.73;;;3.50;;
18435;SDS011;9346;52.006;4.720;2023-02-28T09:31:13;6.17;;;2.43;;
18435;SDS011;9346;52.006;4.720;2023-02-28T09:33:41;3.30;;;2.17;;
18435;SDS011;9346;52.006;4.720;2023-02-28T09:36:11;4.80;;;3.00;;
18435;SDS011;9346;52.006;4.720;2023-02-28T09:38:37;8.13;;;3.00;;
18435;SDS011;9346;52.006;4.720;2023-02-28T09:41:09;8.73;;;3.23;;
18435;SDS011;9346;52.006;4.720;2023-02-28T09:43:40;10.07;;;3.83;;
18435;SDS011;9346;52.006;4.720;2023-02-28T09:46:18;7.13;;;3.67;;
18435;SDS011;9346;52.006;4.720;2023-02-28T09:48:54;6.63;;;3.23;;
18435;SDS011;9346;52.006;4.720;2023-02-28T09:51:28;7.67;;;4.57;;
18435;SDS011;9346;52.006;4.720;2023-02-28T09:54:02;7.83;;;3.77;;
18435;SDS011;9346;52.006;4.720;2023-02-28T09:56:30;7.17;;;3.90;;
18435;SDS011;9346;52.006;4.720;2023-02-28T09:59:03;5.13;;;3.53;;
18435;SDS011;9346;52.006;4.720;2023-02-28T10:01:37;5.60;;;3.53;;
18435;SDS011;9346;52.006;4.720;2023-02-28T10:04:11;6.17;;;3.87;;
18435;SDS011;9346;52.006;4.720;2023-02-28T10:06:51;6.33;;;3.70;;
18435;SDS011;9346;52.006;4.720;2023-02-28T10:09:21;6.37;;;4.13;;
18435;SDS011;9346;52.006;4.720;2023-02-28T10:11:51;5.57;;;3.83;;
18435;SDS011;9346;52.006;4.720;2023-02-28T10:14:20;5.70;;;3.90;;
18435;SDS011;9346;52.006;4.720;2023-02-28T10:16:50;5.43;;;4.17;;
18435;SDS011;9346;52.006;4.720;2023-02-28T10:19:22;5.43;;;3.77;;
18435;SDS011;9346;52.006;4.720;2023-02-28T10:21:59;8.53;;;4.23;;
18435;SDS011;9346;52.006;4.720;2023-02-28T10:24:30;6.87;;;3.60;;
18435;SDS011;9346;52.006;4.720;2023-02-28T10:27:01;21.90;;;4.30;;
18435;SDS011;9346;52.006;4.720;2023-02-28T10:29:37;8.23;;;3.67;;
18435;SDS011;9346;52.006;4.720;2023-02-28T10:32:08;7.00;;;3.80;;
18435;SDS011;9346;52.006;4.720;2023-02-28T10:34:39;5.27;;;3.70;;
18435;SDS011;9346;52.006;4.720;2023-02-28T10:37:08;6.47;;;3.97;;
18435;SDS011;9346;52.006;4.720;2023-02-28T10:39:38;6.10;;;3.67;;
18435;SDS011;9346;52.006;4.720;2023-02-28T10:42:18;6.70;;;4.23;;
18435;SDS011;9346;52.006;4.720;2023-02-28T10:44:47;10.03;;;3.50;;
18435;SDS011;9346;52.006;4.720;2023-02-28T10:47:15;4.93;;;3.33;;
18435;SDS011;9346;52.006;4.720;2023-02-28T10:49:47;4.67;;;3.00;;
18435;SDS011;9346;52.006;4.720;2023-02-28T10:55:15;3.07;;;2.73;;
18435;SDS011;9346;52.006;4.720;2023-02-28T10:57:47;5.20;;;3.03;;
18435;SDS011;9346;52.006;4.720;2023-02-28T11:00:15;6.60;;;2.77;;
18435;SDS011;9346;52.006;4.720;2023-02-28T11:02:43;6.03;;;2.93;;
18435;SDS011;9346;52.006;4.720;2023-02-28T11:05:24;4.03;;;2.27;;
18435;SDS011;9346;52.006;4.720;2023-02-28T11:07:55;4.13;;;2.13;;
18435;SDS011;9346;52.006;4.720;2023-02-28T11:10:27;2.13;;;1.93;;
18435;SDS011;9346;52.006;4.720;2023-02-28T11:12:59;2.33;;;1.60;;
18435;SDS011;9346;52.006;4.720;2023-02-28T11:15:27;3.30;;;1.80;;
18435;SDS011;9346;52.006;4.720;2023-02-28T11:17:57;1.93;;;1.60;;
18435;SDS011;9346;52.006;4.720;2023-02-28T11:20:27;1.87;;;1.67;;
18435;SDS011;9346;52.006;4.720;2023-02-28T11:22:58;2.07;;;1.60;;
18435;SDS011;9346;52.006;4.720;2023-02-28T11:25:29;3.60;;;2.13;;
18435;SDS011;9346;52.006;4.720;2023-02-28T11:27:58;2.40;;;1.77;;
18435;SDS011;9346;52.006;4.720;2023-02-28T11:30:33;2.37;;;1.83;;
18435;SDS011;9346;52.006;4.720;2023-02-28T11:33:18;2.90;;;1.67;;
18435;SDS011;9346;52.006;4.720;2023-02-28T11:35:49;2.07;;;1.87;;
18435;SDS011;9346;52.006;4.720;2023-02-28T11:38:21;2.00;;;1.80;;
18435;SDS011;9346;52.006;4.720;2023-02-28T11:40:48;2.03;;;1.77;;
18435;SDS011;9346;52.006;4.720;2023-02-28T11:43:30;3.00;;;1.87;;
18435;SDS011;9346;52.006;4.720;2023-02-28T11:46:11;2.40;;;2.07;;
18435;SDS011;9346;52.006;4.720;2023-02-28T11:48:52;2.37;;;1.80;;
18435;SDS011;9346;52.006;4.720;2023-02-28T11:51:26;3.17;;;1.50;;
18435;SDS011;9346;52.006;4.720;2023-02-28T11:54:04;3.20;;;1.93;;
18435;SDS011;9346;52.006;4.720;2023-02-28T11:56:44;1.87;;;1.53;;
18435;SDS011;9346;52.006;4.720;2023-02-28T12:02:25;1.80;;;1.47;;
18435;SDS011;9346;52.006;4.720;2023-02-28T12:07:52;2.60;;;1.73;;
18435;SDS011;9346;52.006;4.720;2023-02-28T12:10:32;1.67;;;1.57;;
18435;SDS011;9346;52.006;4.720;2023-02-28T12:13:07;2.07;;;1.30;;
18435;SDS011;9346;52.006;4.720;2023-02-28T12:24:44;1.70;;;1.30;;
18435;SDS011;9346;52.006;4.720;2023-02-28T12:27:24;2.07;;;1.20;;
18435;SDS011;9346;52.006;4.720;2023-02-28T12:29:57;4.30;;;1.70;;
18435;SDS011;9346;52.006;4.720;2023-02-28T12:32:30;2.17;;;1.60;;
18435;SDS011;9346;52.006;4.720;2023-02-28T12:35:01;2.73;;;1.67;;
18435;SDS011;9346;52.006;4.720;2023-02-28T12:37:31;2.70;;;1.83;;
18435;SDS011;9346;52.006;4.720;2023-02-28T12:40:06;2.50;;;1.80;;
18435;SDS011;9346;52.006;4.720;2023-02-28T12:42:40;3.37;;;1.70;;
18435;SDS011;9346;52.006;4.720;2023-02-28T12:45:13;2.90;;;1.97;;
18435;SDS011;9346;52.006;4.720;2023-02-28T12:47:46;1.80;;;1.67;;
18435;SDS011;9346;52.006;4.720;2023-02-28T12:50:19;2.93;;;1.90;;
18435;SDS011;9346;52.006;4.720;2023-02-28T12:52:51;2.83;;;1.53;;
18435;SDS011;9346;52.006;4.720;2023-02-28T12:55:23;2.37;;;2.07;;
18435;SDS011;9346;52.006;4.720;2023-02-28T12:58:04;5.80;;;1.83;;
18435;SDS011;9346;52.006;4.720;2023-02-28T13:00:38;6.73;;;1.60;;
18435;SDS011;9346;52.006;4.720;2023-02-28T13:03:31;2.77;;;1.77;;
18435;SDS011;9346;52.006;4.720;2023-02-28T13:06:10;3.00;;;1.60;;
18435;SDS011;9346;52.006;4.720;2023-02-28T13:08:50;2.23;;;1.70;;
18435;SDS011;9346;52.006;4.720;2023-02-28T13:11:28;1.63;;;1.40;;
18435;SDS011;9346;52.006;4.720;2023-02-28T13:14:00;5.17;;;1.80;;
18435;SDS011;9346;52.006;4.720;2023-02-28T13:19:19;1.60;;;1.50;;
18435;SDS011;9346;52.006;4.720;2023-02-28T13:21:49;2.93;;;1.83;;
18435;SDS011;9346;52.006;4.720;2023-02-28T13:24:37;2.53;;;1.50;;
18435;SDS011;9346;52.006;4.720;2023-02-28T13:30:49;1.70;;;1.60;;
18435;SDS011;9346;52.006;4.720;2023-02-28T13:33:17;3.13;;;1.97;;
18435;SDS011;9346;52.006;4.720;2023-02-28T13:35:50;5.43;;;1.70;;
18435;SDS011;9346;52.006;4.720;2023-02-28T13:38:34;1.70;;;1.40;;
18435;SDS011;9346;52.006;4.720;2023-02-28T13:44:16;1.60;;;1.40;;
18435;SDS011;9346;52.006;4.720;2023-02-28T13:49:49;2.07;;;1.50;;
18435;SDS011;9346;52.006;4.720;2023-02-28T13:52:18;4.97;;;1.50;;
18435;SDS011;9346;52.006;4.720;2023-02-28T14:00:48;1.43;;;1.20;;
18435;SDS011;9346;52.006;4.720;2023-02-28T14:06:24;2.03;;;1.60;;
18435;SDS011;9346;52.006;4.720;2023-02-28T14:08:54;2.10;;;1.70;;
18435;SDS011;9346;52.006;4.720;2023-02-28T14:11:29;1.80;;;1.60;;
18435;SDS011;9346;52.006;4.720;2023-02-28T14:13:58;1.93;;;1.77;;
18435;SDS011;9346;52.006;4.720;2023-02-28T14:16:26;4.97;;;1.60;;
18435;SDS011;9346;52.006;4.720;2023-02-28T14:19:04;2.60;;;2.10;;
18435;SDS011;9346;52.006;4.720;2023-02-28T14:21:39;2.87;;;1.87;;
18435;SDS011;9346;52.006;4.720;2023-02-28T14:24:21;1.70;;;1.60;;
18435;SDS011;9346;52.006;4.720;2023-02-28T14:30:00;2.13;;;1.57;;
18435;SDS011;9346;52.006;4.720;2023-02-28T14:33:01;2.63;;;1.20;;
18435;SDS011;9346;52.006;4.720;2023-02-28T14:38:47;1.33;;;1.23;;
18435;SDS011;9346;52.006;4.720;2023-02-28T14:41:20;2.83;;;1.50;;
18435;SDS011;9346;52.006;4.720;2023-02-28T14:44:13;2.97;;;1.60;;
18435;SDS011;9346;52.006;4.720;2023-02-28T14:46:41;3.03;;;1.33;;
18435;SDS011;9346;52.006;4.720;2023-02-28T14:49:13;4.43;;;2.13;;
18435;SDS011;9346;52.006;4.720;2023-02-28T14:51:46;3.40;;;1.93;;
18435;SDS011;9346;52.006;4.720;2023-02-28T14:57:39;1.67;;;1.30;;
18435;SDS011;9346;52.006;4.720;2023-02-28T15:00:12;1.50;;;1.40;;
18435;SDS011;9346;52.006;4.720;2023-02-28T15:02:43;1.63;;;1.37;;
18435;SDS011;9346;52.006;4.720;2023-02-28T15:05:16;3.33;;;2.60;;
18435;SDS011;9346;52.006;4.720;2023-02-28T15:08:01;3.40;;;1.80;;
18435;SDS011;9346;52.006;4.720;2023-02-28T15:10:31;3.20;;;1.57;;
18435;SDS011;9346;52.006;4.720;2023-02-28T15:13:00;1.90;;;1.50;;
18435;SDS011;9346;52.006;4.720;2023-02-28T15:15:34;1.77;;;1.67;;
18435;SDS011;9346;52.006;4.720;2023-02-28T15:18:07;4.90;;;2.10;;
18435;SDS011;9346;52.006;4.720;2023-02-28T15:20:43;4.57;;;2.60;;
18435;SDS011;9346;52.006;4.720;2023-02-28T15:23:13;6.47;;;2.43;;
18435;SDS011;9346;52.006;4.720;2023-02-28T15:25:42;4.23;;;2.23;;
18435;SDS011;9346;52.006;4.720;2023-02-28T15:28:11;3.40;;;1.90;;
18435;SDS011;9346;52.006;4.720;2023-02-28T15:30:50;3.33;;;1.90;;
18435;SDS011;9346;52.006;4.720;2023-02-28T15:33:19;3.37;;;1.70;;
18435;SDS011;9346;52.006;4.720;2023-02-28T15:35:48;4.17;;;2.23;;
18435;SDS011;9346;52.006;4.720;2023-02-28T15:38:18;2.97;;;2.13;;
18435;SDS011;9346;52.006;4.720;2023-02-28T15:40:50;1.67;;;1.30;;
18435;SDS011;9346;52.006;4.720;2023-02-28T15:43:25;2.73;;;1.80;;
18435;SDS011;9346;52.006;4.720;2023-02-28T15:45:55;4.97;;;2.20;;
18435;SDS011;9346;52.006;4.720;2023-02-28T15:48:24;3.70;;;2.07;;
18435;SDS011;9346;52.006;4.720;2023-02-28T15:50:55;2.73;;;1.93;;
18435;SDS011;9346;52.006;4.720;2023-02-28T15:53:30;3.40;;;2.43;;
18435;SDS011;9346;52.006;4.720;2023-02-28T15:56:00;3.47;;;2.43;;
18435;SDS011;9346;52.006;4.720;2023-02-28T15:58:28;3.27;;;2.07;;
18435;SDS011;9346;52.006;4.720;2023-02-28T16:01:06;5.07;;;2.70;;
18435;SDS011;9346;52.006;4.720;2023-02-28T16:03:44;3.07;;;2.00;;
18435;SDS011;9346;52.006;4.720;2023-02-28T16:09:11;3.53;;;2.20;;
18435;SDS011;9346;52.006;4.720;2023-02-28T16:11:40;2.90;;;2.40;;
18435;SDS011;9346;52.006;4.720;2023-02-28T16:14:12;3.17;;;2.37;;
18435;SDS011;9346;52.006;4.720;2023-02-28T16:16:41;3.67;;;2.20;;
18435;SDS011;9346;52.006;4.720;2023-02-28T16:19:09;2.90;;;2.03;;
18435;SDS011;9346;52.006;4.720;2023-02-28T16:21:36;5.17;;;2.10;;
18435;SDS011;9346;52.006;4.720;2023-02-28T16:24:03;6.13;;;2.70;;